Kranzburg, South Dakota
Current Conditions -  °F | °C
As of 5:53 PM on Thursday 18 Dec 2014 (Local Time) from KATY Reporting Station
Overcast Overcast  
Wind Chill: 14°   Ceiling: 1000
Heat Index: 24°   Visibility: 9mi
Dew Point: 20°   Wind: 10mph
Humidity: 84%   Direction: 160°SSE
Pressure: 30.12"   Gusts: NA
Location:  44.89°N, 96.92°W
Report Text: KATY 182353Z AUTO 16009KT 9SM BKN010 OVC015 M04/M07 A3012 RMK AO2 SLP230 T10441067 11044 21061 50000
Loading
Personal Weather Stations






























Interactive Weather Map New forecast layout! Learn more

10-Day Weather Forecast

Advertisements
Track Severe Weather on mobile